sensor_id;sensor_type;location;lat;lon;timestamp;P1;durP1;ratioP1;P2;durP2;ratioP2
20861;SDS011;10591;52.532;13.348;2023-05-20T00:00:24;5.45;;;4.12;;
20861;SDS011;10591;52.532;13.348;2023-05-20T00:02:55;5.03;;;4.50;;
20861;SDS011;10591;52.532;13.348;2023-05-20T00:05:27;7.37;;;5.25;;
20861;SDS011;10591;52.532;13.348;2023-05-20T00:07:58;6.58;;;4.70;;
20861;SDS011;10591;52.532;13.348;2023-05-20T00:10:32;4.85;;;4.03;;
20861;SDS011;10591;52.532;13.348;2023-05-20T00:13:04;7.83;;;4.53;;
20861;SDS011;10591;52.532;13.348;2023-05-20T00:15:35;7.00;;;4.53;;
20861;SDS011;10591;52.532;13.348;2023-05-20T00:18:06;6.80;;;4.58;;
20861;SDS011;10591;52.532;13.348;2023-05-20T00:20:37;5.85;;;4.70;;
20861;SDS011;10591;52.532;13.348;2023-05-20T00:23:08;4.65;;;4.17;;
20861;SDS011;10591;52.532;13.348;2023-05-20T00:25:39;4.58;;;3.70;;
20861;SDS011;10591;52.532;13.348;2023-05-20T00:28:09;5.25;;;4.35;;
20861;SDS011;10591;52.532;13.348;2023-05-20T00:30:40;4.97;;;4.07;;
20861;SDS011;10591;52.532;13.348;2023-05-20T00:33:11;5.90;;;4.23;;
20861;SDS011;10591;52.532;13.348;2023-05-20T00:35:41;6.60;;;3.95;;
20861;SDS011;10591;52.532;13.348;2023-05-20T00:38:14;6.05;;;4.53;;
20861;SDS011;10591;52.532;13.348;2023-05-20T00:40:44;7.20;;;4.58;;
20861;SDS011;10591;52.532;13.348;2023-05-20T00:43:15;5.65;;;5.03;;
20861;SDS011;10591;52.532;13.348;2023-05-20T00:45:48;6.12;;;4.80;;
20861;SDS011;10591;52.532;13.348;2023-05-20T00:48:20;5.37;;;4.62;;
20861;SDS011;10591;52.532;13.348;2023-05-20T00:50:51;7.47;;;4.58;;
20861;SDS011;10591;52.532;13.348;2023-05-20T00:53:22;6.45;;;5.12;;
20861;SDS011;10591;52.532;13.348;2023-05-20T00:55:53;8.23;;;4.90;;
20861;SDS011;10591;52.532;13.348;2023-05-20T00:58:24;5.57;;;4.70;;
20861;SDS011;10591;52.532;13.348;2023-05-20T01:00:54;8.38;;;5.08;;
20861;SDS011;10591;52.532;13.348;2023-05-20T01:03:25;5.63;;;4.70;;
20861;SDS011;10591;52.532;13.348;2023-05-20T01:05:57;7.92;;;5.25;;
20861;SDS011;10591;52.532;13.348;2023-05-20T01:08:29;5.70;;;4.83;;
20861;SDS011;10591;52.532;13.348;2023-05-20T01:11:05;6.90;;;4.72;;
20861;SDS011;10591;52.532;13.348;2023-05-20T01:13:42;8.60;;;5.40;;
20861;SDS011;10591;52.532;13.348;2023-05-20T01:16:16;9.45;;;5.90;;
20861;SDS011;10591;52.532;13.348;2023-05-20T01:18:49;5.90;;;5.30;;
20861;SDS011;10591;52.532;13.348;2023-05-20T01:21:23;7.37;;;5.53;;
20861;SDS011;10591;52.532;13.348;2023-05-20T01:23:56;6.72;;;5.47;;
20861;SDS011;10591;52.532;13.348;2023-05-20T01:26:29;8.70;;;6.45;;
20861;SDS011;10591;52.532;13.348;2023-05-20T01:29:01;7.65;;;5.47;;
20861;SDS011;10591;52.532;13.348;2023-05-20T01:31:32;7.53;;;5.50;;
20861;SDS011;10591;52.532;13.348;2023-05-20T01:34:06;7.45;;;5.42;;
20861;SDS011;10591;52.532;13.348;2023-05-20T01:36:37;8.05;;;5.80;;
20861;SDS011;10591;52.532;13.348;2023-05-20T01:39:09;8.05;;;5.97;;
20861;SDS011;10591;52.532;13.348;2023-05-20T01:41:42;7.58;;;5.42;;
20861;SDS011;10591;52.532;13.348;2023-05-20T01:44:14;8.55;;;5.47;;
20861;SDS011;10591;52.532;13.348;2023-05-20T01:46:48;5.35;;;4.65;;
20861;SDS011;10591;52.532;13.348;2023-05-20T01:49:19;6.33;;;4.90;;
20861;SDS011;10591;52.532;13.348;2023-05-20T01:51:50;7.43;;;5.30;;
20861;SDS011;10591;52.532;13.348;2023-05-20T01:54:20;10.50;;;6.73;;
20861;SDS011;10591;52.532;13.348;2023-05-20T01:56:51;7.10;;;5.50;;
20861;SDS011;10591;52.532;13.348;2023-05-20T01:59:24;8.23;;;5.90;;
20861;SDS011;10591;52.532;13.348;2023-05-20T02:01:57;5.85;;;4.95;;
20861;SDS011;10591;52.532;13.348;2023-05-20T02:04:27;5.20;;;4.70;;
20861;SDS011;10591;52.532;13.348;2023-05-20T02:06:58;6.42;;;5.20;;
20861;SDS011;10591;52.532;13.348;2023-05-20T02:09:29;7.22;;;5.40;;
20861;SDS011;10591;52.532;13.348;2023-05-20T02:11:59;7.50;;;5.37;;
20861;SDS011;10591;52.532;13.348;2023-05-20T02:14:30;8.40;;;5.50;;
20861;SDS011;10591;52.532;13.348;2023-05-20T02:17:01;7.53;;;6.00;;
20861;SDS011;10591;52.532;13.348;2023-05-20T02:19:32;8.28;;;5.90;;
20861;SDS011;10591;52.532;13.348;2023-05-20T02:22:05;5.30;;;4.80;;
20861;SDS011;10591;52.532;13.348;2023-05-20T02:24:37;5.58;;;5.00;;
20861;SDS011;10591;52.532;13.348;2023-05-20T02:27:08;7.63;;;5.43;;
20861;SDS011;10591;52.532;13.348;2023-05-20T02:29:39;6.00;;;5.40;;
20861;SDS011;10591;52.532;13.348;2023-05-20T02:32:12;8.70;;;5.37;;
20861;SDS011;10591;52.532;13.348;2023-05-20T02:34:42;7.50;;;5.08;;
20861;SDS011;10591;52.532;13.348;2023-05-20T02:37:13;7.65;;;5.53;;
20861;SDS011;10591;52.532;13.348;2023-05-20T02:39:47;6.83;;;5.40;;
20861;SDS011;10591;52.532;13.348;2023-05-20T02:42:18;6.50;;;5.30;;
20861;SDS011;10591;52.532;13.348;2023-05-20T02:44:48;5.80;;;5.20;;
20861;SDS011;10591;52.532;13.348;2023-05-20T02:47:21;9.85;;;5.60;;
20861;SDS011;10591;52.532;13.348;2023-05-20T02:49:51;7.67;;;5.73;;
20861;SDS011;10591;52.532;13.348;2023-05-20T02:52:22;9.45;;;5.40;;
20861;SDS011;10591;52.532;13.348;2023-05-20T02:54:53;9.85;;;5.40;;
20861;SDS011;10591;52.532;13.348;2023-05-20T02:57:24;9.43;;;5.53;;
20861;SDS011;10591;52.532;13.348;2023-05-20T02:59:57;7.85;;;5.75;;
20861;SDS011;10591;52.532;13.348;2023-05-20T03:02:28;7.25;;;5.78;;
20861;SDS011;10591;52.532;13.348;2023-05-20T03:05:00;7.40;;;5.35;;
20861;SDS011;10591;52.532;13.348;2023-05-20T03:07:33;7.55;;;5.92;;
20861;SDS011;10591;52.532;13.348;2023-05-20T03:10:07;8.73;;;5.60;;
20861;SDS011;10591;52.532;13.348;2023-05-20T03:12:41;7.05;;;5.67;;
20861;SDS011;10591;52.532;13.348;2023-05-20T03:15:12;9.63;;;6.30;;
20861;SDS011;10591;52.532;13.348;2023-05-20T03:17:42;7.67;;;5.78;;
20861;SDS011;10591;52.532;13.348;2023-05-20T03:20:13;5.92;;;5.25;;
20861;SDS011;10591;52.532;13.348;2023-05-20T03:22:45;8.20;;;5.70;;
20861;SDS011;10591;52.532;13.348;2023-05-20T03:25:16;6.60;;;5.50;;
20861;SDS011;10591;52.532;13.348;2023-05-20T03:27:46;5.57;;;4.93;;
20861;SDS011;10591;52.532;13.348;2023-05-20T03:30:17;7.23;;;5.30;;
20861;SDS011;10591;52.532;13.348;2023-05-20T03:32:47;9.98;;;6.03;;
20861;SDS011;10591;52.532;13.348;2023-05-20T03:35:18;6.47;;;5.30;;
20861;SDS011;10591;52.532;13.348;2023-05-20T03:37:51;7.37;;;5.00;;
20861;SDS011;10591;52.532;13.348;2023-05-20T03:40:21;7.33;;;5.37;;
20861;SDS011;10591;52.532;13.348;2023-05-20T03:42:54;7.67;;;5.40;;
20861;SDS011;10591;52.532;13.348;2023-05-20T03:45:26;6.37;;;4.87;;
20861;SDS011;10591;52.532;13.348;2023-05-20T03:47:57;6.70;;;5.53;;
20861;SDS011;10591;52.532;13.348;2023-05-20T03:50:30;7.87;;;5.65;;
20861;SDS011;10591;52.532;13.348;2023-05-20T03:53:02;9.33;;;5.70;;
20861;SDS011;10591;52.532;13.348;2023-05-20T03:55:34;6.80;;;5.53;;
20861;SDS011;10591;52.532;13.348;2023-05-20T03:58:05;8.53;;;5.97;;
20861;SDS011;10591;52.532;13.348;2023-05-20T04:00:36;6.17;;;5.50;;
20861;SDS011;10591;52.532;13.348;2023-05-20T04:03:07;6.05;;;5.15;;
20861;SDS011;10591;52.532;13.348;2023-05-20T04:05:38;7.43;;;5.40;;
20861;SDS011;10591;52.532;13.348;2023-05-20T04:08:09;7.33;;;5.40;;
20861;SDS011;10591;52.532;13.348;2023-05-20T04:10:41;9.43;;;5.87;;
20861;SDS011;10591;52.532;13.348;2023-05-20T04:13:12;7.30;;;5.80;;
20861;SDS011;10591;52.532;13.348;2023-05-20T04:15:43;7.43;;;5.80;;
20861;SDS011;10591;52.532;13.348;2023-05-20T04:18:14;7.78;;;5.20;;
20861;SDS011;10591;52.532;13.348;2023-05-20T04:20:45;9.50;;;6.30;;
20861;SDS011;10591;52.532;13.348;2023-05-20T04:23:16;6.75;;;5.85;;
20861;SDS011;10591;52.532;13.348;2023-05-20T04:25:48;8.13;;;6.70;;
20861;SDS011;10591;52.532;13.348;2023-05-20T04:28:20;7.70;;;5.60;;
20861;SDS011;10591;52.532;13.348;2023-05-20T04:30:58;9.60;;;7.07;;
20861;SDS011;10591;52.532;13.348;2023-05-20T04:33:31;9.87;;;6.20;;
20861;SDS011;10591;52.532;13.348;2023-05-20T04:36:05;8.78;;;6.22;;
20861;SDS011;10591;52.532;13.348;2023-05-20T04:38:40;7.57;;;6.23;;
20861;SDS011;10591;52.532;13.348;2023-05-20T04:41:12;8.47;;;6.10;;
20861;SDS011;10591;52.532;13.348;2023-05-20T04:43:44;8.30;;;6.22;;
20861;SDS011;10591;52.532;13.348;2023-05-20T04:46:14;8.70;;;5.80;;
20861;SDS011;10591;52.532;13.348;2023-05-20T04:48:45;8.30;;;5.58;;
20861;SDS011;10591;52.532;13.348;2023-05-20T04:51:17;7.97;;;5.13;;
20861;SDS011;10591;52.532;13.348;2023-05-20T04:53:47;6.97;;;5.78;;
20861;SDS011;10591;52.532;13.348;2023-05-20T04:56:18;7.17;;;5.58;;
20861;SDS011;10591;52.532;13.348;2023-05-20T04:58:49;9.53;;;6.95;;
20861;SDS011;10591;52.532;13.348;2023-05-20T05:01:21;6.97;;;6.28;;
20861;SDS011;10591;52.532;13.348;2023-05-20T05:03:52;7.05;;;6.15;;
20861;SDS011;10591;52.532;13.348;2023-05-20T05:06:22;7.70;;;6.10;;
20861;SDS011;10591;52.532;13.348;2023-05-20T05:08:53;7.20;;;5.15;;
20861;SDS011;10591;52.532;13.348;2023-05-20T05:11:24;6.13;;;5.50;;
20861;SDS011;10591;52.532;13.348;2023-05-20T05:13:55;11.67;;;6.17;;
20861;SDS011;10591;52.532;13.348;2023-05-20T05:16:25;6.97;;;5.35;;
20861;SDS011;10591;52.532;13.348;2023-05-20T05:18:56;7.30;;;6.60;;
20861;SDS011;10591;52.532;13.348;2023-05-20T05:21:27;8.10;;;6.40;;
20861;SDS011;10591;52.532;13.348;2023-05-20T05:23:57;9.73;;;6.53;;
20861;SDS011;10591;52.532;13.348;2023-05-20T05:26:28;8.33;;;6.47;;
20861;SDS011;10591;52.532;13.348;2023-05-20T05:29:01;7.37;;;6.28;;
20861;SDS011;10591;52.532;13.348;2023-05-20T05:31:31;7.00;;;6.08;;
20861;SDS011;10591;52.532;13.348;2023-05-20T05:34:03;7.97;;;6.53;;
20861;SDS011;10591;52.532;13.348;2023-05-20T05:36:37;8.40;;;6.67;;
20861;SDS011;10591;52.532;13.348;2023-05-20T05:39:09;9.33;;;6.58;;
20861;SDS011;10591;52.532;13.348;2023-05-20T05:41:40;9.90;;;7.60;;
20861;SDS011;10591;52.532;13.348;2023-05-20T05:44:10;8.05;;;6.45;;
20861;SDS011;10591;52.532;13.348;2023-05-20T05:46:42;13.40;;;7.37;;
20861;SDS011;10591;52.532;13.348;2023-05-20T05:49:13;11.33;;;6.37;;
20861;SDS011;10591;52.532;13.348;2023-05-20T05:51:45;8.73;;;6.40;;
20861;SDS011;10591;52.532;13.348;2023-05-20T05:54:16;9.70;;;6.90;;
20861;SDS011;10591;52.532;13.348;2023-05-20T05:56:54;8.17;;;6.77;;
20861;SDS011;10591;52.532;13.348;2023-05-20T05:59:21;8.97;;;7.10;;
20861;SDS011;10591;52.532;13.348;2023-05-20T06:01:52;10.27;;;6.37;;
20861;SDS011;10591;52.532;13.348;2023-05-20T06:04:22;10.13;;;6.72;;
20861;SDS011;10591;52.532;13.348;2023-05-20T06:06:53;8.38;;;6.47;;
20861;SDS011;10591;52.532;13.348;2023-05-20T06:09:24;9.35;;;6.83;;
20861;SDS011;10591;52.532;13.348;2023-05-20T06:11:54;8.75;;;6.30;;
20861;SDS011;10591;52.532;13.348;2023-05-20T06:14:25;7.40;;;6.10;;
20861;SDS011;10591;52.532;13.348;2023-05-20T06:16:56;10.70;;;6.60;;
20861;SDS011;10591;52.532;13.348;2023-05-20T06:19:27;7.83;;;7.03;;
20861;SDS011;10591;52.532;13.348;2023-05-20T06:21:58;9.03;;;6.85;;
20861;SDS011;10591;52.532;13.348;2023-05-20T06:24:32;11.93;;;7.67;;
20861;SDS011;10591;52.532;13.348;2023-05-20T06:27:03;9.13;;;7.00;;
20861;SDS011;10591;52.532;13.348;2023-05-20T06:29:34;9.13;;;6.33;;
20861;SDS011;10591;52.532;13.348;2023-05-20T06:32:05;8.53;;;6.70;;
20861;SDS011;10591;52.532;13.348;2023-05-20T06:34:39;7.70;;;6.50;;
20861;SDS011;10591;52.532;13.348;2023-05-20T06:37:13;10.65;;;6.70;;
20861;SDS011;10591;52.532;13.348;2023-05-20T06:39:46;9.10;;;6.53;;
20861;SDS011;10591;52.532;13.348;2023-05-20T06:42:19;8.33;;;6.30;;
20861;SDS011;10591;52.532;13.348;2023-05-20T06:44:50;12.60;;;8.15;;
20861;SDS011;10591;52.532;13.348;2023-05-20T06:47:25;9.57;;;7.47;;
20861;SDS011;10591;52.532;13.348;2023-05-20T06:49:57;15.80;;;7.83;;
20861;SDS011;10591;52.532;13.348;2023-05-20T06:52:29;11.17;;;7.63;;
20861;SDS011;10591;52.532;13.348;2023-05-20T06:55:02;11.95;;;7.78;;
20861;SDS011;10591;52.532;13.348;2023-05-20T06:57:34;10.10;;;7.10;;
20861;SDS011;10591;52.532;13.348;2023-05-20T07:00:05;9.70;;;6.70;;
20861;SDS011;10591;52.532;13.348;2023-05-20T07:02:37;9.48;;;7.17;;
20861;SDS011;10591;52.532;13.348;2023-05-20T07:05:08;7.63;;;6.83;;
20861;SDS011;10591;52.532;13.348;2023-05-20T07:07:41;9.97;;;7.20;;
20861;SDS011;10591;52.532;13.348;2023-05-20T07:10:12;7.55;;;6.25;;
20861;SDS011;10591;52.532;13.348;2023-05-20T07:12:44;8.30;;;6.70;;
20861;SDS011;10591;52.532;13.348;2023-05-20T07:15:15;9.00;;;6.97;;
20861;SDS011;10591;52.532;13.348;2023-05-20T07:17:47;9.23;;;6.87;;
20861;SDS011;10591;52.532;13.348;2023-05-20T07:20:20;8.93;;;7.10;;
20861;SDS011;10591;52.532;13.348;2023-05-20T07:22:52;10.48;;;7.65;;
20861;SDS011;10591;52.532;13.348;2023-05-20T07:25:23;8.73;;;7.10;;
20861;SDS011;10591;52.532;13.348;2023-05-20T07:27:54;7.17;;;6.47;;
20861;SDS011;10591;52.532;13.348;2023-05-20T07:30:27;8.68;;;7.30;;
20861;SDS011;10591;52.532;13.348;2023-05-20T07:32:58;9.30;;;6.45;;
20861;SDS011;10591;52.532;13.348;2023-05-20T07:35:29;10.23;;;7.15;;
20861;SDS011;10591;52.532;13.348;2023-05-20T07:38:01;7.42;;;6.50;;
20861;SDS011;10591;52.532;13.348;2023-05-20T07:40:31;10.13;;;7.03;;
20861;SDS011;10591;52.532;13.348;2023-05-20T07:43:04;11.65;;;7.78;;
20861;SDS011;10591;52.532;13.348;2023-05-20T07:45:36;8.00;;;7.08;;
20861;SDS011;10591;52.532;13.348;2023-05-20T07:48:07;8.58;;;7.17;;
20861;SDS011;10591;52.532;13.348;2023-05-20T07:50:43;8.15;;;7.10;;
20861;SDS011;10591;52.532;13.348;2023-05-20T07:53:13;9.05;;;7.90;;
20861;SDS011;10591;52.532;13.348;2023-05-20T07:55:44;9.35;;;7.22;;
20861;SDS011;10591;52.532;13.348;2023-05-20T07:58:14;8.13;;;7.30;;
20861;SDS011;10591;52.532;13.348;2023-05-20T08:00:45;8.30;;;7.12;;
20861;SDS011;10591;52.532;13.348;2023-05-20T08:03:17;6.85;;;6.10;;
20861;SDS011;10591;52.532;13.348;2023-05-20T08:05:52;7.47;;;6.30;;
20861;SDS011;10591;52.532;13.348;2023-05-20T08:08:23;7.00;;;6.28;;
20861;SDS011;10591;52.532;13.348;2023-05-20T08:10:59;9.55;;;6.50;;
20861;SDS011;10591;52.532;13.348;2023-05-20T08:13:30;8.10;;;6.40;;
20861;SDS011;10591;52.532;13.348;2023-05-20T08:16:02;9.10;;;6.90;;
20861;SDS011;10591;52.532;13.348;2023-05-20T08:18:34;7.75;;;6.95;;
20861;SDS011;10591;52.532;13.348;2023-05-20T08:21:06;9.50;;;6.70;;
20861;SDS011;10591;52.532;13.348;2023-05-20T08:23:40;8.85;;;6.33;;
20861;SDS011;10591;52.532;13.348;2023-05-20T08:26:11;7.72;;;6.75;;
20861;SDS011;10591;52.532;13.348;2023-05-20T08:28:43;9.18;;;7.25;;
20861;SDS011;10591;52.532;13.348;2023-05-20T08:31:16;7.28;;;6.40;;
20861;SDS011;10591;52.532;13.348;2023-05-20T08:33:47;8.73;;;6.53;;
20861;SDS011;10591;52.532;13.348;2023-05-20T08:36:18;7.95;;;6.20;;
20861;SDS011;10591;52.532;13.348;2023-05-20T08:38:49;6.90;;;6.17;;
20861;SDS011;10591;52.532;13.348;2023-05-20T08:41:22;7.10;;;5.80;;
20861;SDS011;10591;52.532;13.348;2023-05-20T08:43:53;8.38;;;6.65;;
20861;SDS011;10591;52.532;13.348;2023-05-20T08:46:26;8.28;;;6.97;;
20861;SDS011;10591;52.532;13.348;2023-05-20T08:48:58;7.65;;;6.05;;
20861;SDS011;10591;52.532;13.348;2023-05-20T08:51:31;9.18;;;6.47;;
20861;SDS011;10591;52.532;13.348;2023-05-20T08:54:05;9.43;;;7.25;;
20861;SDS011;10591;52.532;13.348;2023-05-20T08:56:38;8.13;;;5.87;;
20861;SDS011;10591;52.532;13.348;2023-05-20T08:59:13;10.00;;;6.50;;
20861;SDS011;10591;52.532;13.348;2023-05-20T09:01:43;7.17;;;6.37;;
20861;SDS011;10591;52.532;13.348;2023-05-20T09:04:14;8.55;;;6.58;;
20861;SDS011;10591;52.532;13.348;2023-05-20T09:06:46;7.00;;;6.30;;
20861;SDS011;10591;52.532;13.348;2023-05-20T09:09:19;7.65;;;6.20;;
20861;SDS011;10591;52.532;13.348;2023-05-20T09:11:51;7.87;;;6.33;;
20861;SDS011;10591;52.532;13.348;2023-05-20T09:14:26;7.22;;;5.97;;
20861;SDS011;10591;52.532;13.348;2023-05-20T09:16:56;7.65;;;6.47;;
20861;SDS011;10591;52.532;13.348;2023-05-20T09:19:28;6.62;;;6.03;;
20861;SDS011;10591;52.532;13.348;2023-05-20T09:21:59;7.28;;;6.50;;
20861;SDS011;10591;52.532;13.348;2023-05-20T09:24:33;7.20;;;6.50;;
20861;SDS011;10591;52.532;13.348;2023-05-20T09:27:04;7.22;;;6.40;;
20861;SDS011;10591;52.532;13.348;2023-05-20T09:29:34;8.95;;;6.92;;
20861;SDS011;10591;52.532;13.348;2023-05-20T09:32:06;8.00;;;7.08;;
20861;SDS011;10591;52.532;13.348;2023-05-20T09:34:37;6.95;;;6.20;;
20861;SDS011;10591;52.532;13.348;2023-05-20T09:37:10;9.73;;;7.05;;
20861;SDS011;10591;52.532;13.348;2023-05-20T09:39:55;6.37;;;5.78;;
20861;SDS011;10591;52.532;13.348;2023-05-20T09:42:33;7.75;;;6.78;;
20861;SDS011;10591;52.532;13.348;2023-05-20T09:45:06;8.35;;;6.45;;
20861;SDS011;10591;52.532;13.348;2023-05-20T09:47:37;7.53;;;6.62;;
20861;SDS011;10591;52.532;13.348;2023-05-20T09:50:10;7.45;;;6.75;;
20861;SDS011;10591;52.532;13.348;2023-05-20T09:52:42;8.18;;;7.20;;
20861;SDS011;10591;52.532;13.348;2023-05-20T09:55:15;7.78;;;6.92;;
20861;SDS011;10591;52.532;13.348;2023-05-20T09:57:47;8.75;;;7.55;;
20861;SDS011;10591;52.532;13.348;2023-05-20T10:00:19;9.10;;;7.00;;
20861;SDS011;10591;52.532;13.348;2023-05-20T10:02:50;9.65;;;8.43;;
20861;SDS011;10591;52.532;13.348;2023-05-20T10:05:29;10.03;;;8.45;;
20861;SDS011;10591;52.532;13.348;2023-05-20T10:08:13;11.30;;;8.28;;
20861;SDS011;10591;52.532;13.348;2023-05-20T10:19:28;10.08;;;8.65;;
20861;SDS011;10591;52.532;13.348;2023-05-20T10:22:05;11.33;;;7.53;;
20861;SDS011;10591;52.532;13.348;2023-05-20T10:24:38;9.70;;;8.70;;
20861;SDS011;10591;52.532;13.348;2023-05-20T10:27:11;10.43;;;8.88;;
20861;SDS011;10591;52.532;13.348;2023-05-20T10:29:50;12.37;;;9.28;;
20861;SDS011;10591;52.532;13.348;2023-05-20T10:32:27;10.35;;;8.08;;
20861;SDS011;10591;52.532;13.348;2023-05-20T10:35:01;9.90;;;8.60;;
20861;SDS011;10591;52.532;13.348;2023-05-20T10:37:40;11.43;;;8.75;;
20861;SDS011;10591;52.532;13.348;2023-05-20T10:40:14;10.45;;;8.78;;
20861;SDS011;10591;52.532;13.348;2023-05-20T10:42:47;9.63;;;8.20;;
20861;SDS011;10591;52.532;13.348;2023-05-20T10:45:25;10.63;;;8.28;;
20861;SDS011;10591;52.532;13.348;2023-05-20T10:47:57;11.28;;;8.03;;
20861;SDS011;10591;52.532;13.348;2023-05-20T10:50:33;12.55;;;9.55;;
20861;SDS011;10591;52.532;13.348;2023-05-20T10:53:05;9.38;;;8.33;;
20861;SDS011;10591;52.532;13.348;2023-05-20T10:55:38;10.88;;;9.15;;
20861;SDS011;10591;52.532;13.348;2023-05-20T10:58:10;9.85;;;8.80;;
20861;SDS011;10591;52.532;13.348;2023-05-20T11:00:42;9.03;;;8.13;;
20861;SDS011;10591;52.532;13.348;2023-05-20T11:03:14;9.68;;;8.38;;
20861;SDS011;10591;52.532;13.348;2023-05-20T11:05:46;10.80;;;8.50;;
20861;SDS011;10591;52.532;13.348;2023-05-20T11:08:17;9.33;;;8.10;;
20861;SDS011;10591;52.532;13.348;2023-05-20T11:10:49;9.85;;;8.18;;
20861;SDS011;10591;52.532;13.348;2023-05-20T11:13:20;10.58;;;8.38;;
20861;SDS011;10591;52.532;13.348;2023-05-20T11:15:51;9.75;;;8.23;;
20861;SDS011;10591;52.532;13.348;2023-05-20T11:18:22;10.38;;;8.75;;
20861;SDS011;10591;52.532;13.348;2023-05-20T11:20:52;8.88;;;7.97;;
20861;SDS011;10591;52.532;13.348;2023-05-20T11:23:24;10.23;;;8.60;;
20861;SDS011;10591;52.532;13.348;2023-05-20T11:25:58;9.80;;;8.48;;
20861;SDS011;10591;52.532;13.348;2023-05-20T11:28:29;12.88;;;8.53;;
20861;SDS011;10591;52.532;13.348;2023-05-20T11:31:01;9.75;;;7.78;;
20861;SDS011;10591;52.532;13.348;2023-05-20T11:33:33;9.20;;;8.03;;
20861;SDS011;10591;52.532;13.348;2023-05-20T11:36:08;9.33;;;8.35;;
20861;SDS011;10591;52.532;13.348;2023-05-20T11:38:44;10.88;;;8.13;;
20861;SDS011;10591;52.532;13.348;2023-05-20T11:41:15;9.60;;;8.20;;
20861;SDS011;10591;52.532;13.348;2023-05-20T11:43:56;10.75;;;8.93;;
20861;SDS011;10591;52.532;13.348;2023-05-20T11:46:29;10.88;;;8.23;;
20861;SDS011;10591;52.532;13.348;2023-05-20T11:49:00;11.08;;;8.30;;
20861;SDS011;10591;52.532;13.348;2023-05-20T11:51:36;11.00;;;8.58;;
20861;SDS011;10591;52.532;13.348;2023-05-20T11:54:09;8.88;;;7.85;;
20861;SDS011;10591;52.532;13.348;2023-05-20T11:56:39;9.45;;;8.15;;
20861;SDS011;10591;52.532;13.348;2023-05-20T11:59:13;10.13;;;8.90;;
20861;SDS011;10591;52.532;13.348;2023-05-20T12:01:44;10.55;;;8.93;;
20861;SDS011;10591;52.532;13.348;2023-05-20T12:04:15;9.83;;;8.80;;
20861;SDS011;10591;52.532;13.348;2023-05-20T12:06:47;9.33;;;8.43;;
20861;SDS011;10591;52.532;13.348;2023-05-20T12:09:18;10.78;;;9.20;;
20861;SDS011;10591;52.532;13.348;2023-05-20T12:11:49;13.10;;;8.58;;
20861;SDS011;10591;52.532;13.348;2023-05-20T12:14:20;12.58;;;8.35;;
20861;SDS011;10591;52.532;13.348;2023-05-20T12:16:51;15.63;;;8.90;;
20861;SDS011;10591;52.532;13.348;2023-05-20T12:19:25;9.40;;;8.43;;
20861;SDS011;10591;52.532;13.348;2023-05-20T12:21:56;12.10;;;9.30;;
20861;SDS011;10591;52.532;13.348;2023-05-20T12:24:26;10.88;;;9.50;;
20861;SDS011;10591;52.532;13.348;2023-05-20T12:26:57;11.10;;;9.03;;
20861;SDS011;10591;52.532;13.348;2023-05-20T12:29:33;10.85;;;8.75;;
20861;SDS011;10591;52.532;13.348;2023-05-20T12:32:07;10.70;;;9.05;;
20861;SDS011;10591;52.532;13.348;2023-05-20T12:34:37;10.25;;;8.60;;
20861;SDS011;10591;52.532;13.348;2023-05-20T12:37:08;11.68;;;9.00;;
20861;SDS011;10591;52.532;13.348;2023-05-20T12:39:42;11.08;;;9.55;;
20861;SDS011;10591;52.532;13.348;2023-05-20T12:42:14;10.32;;;9.13;;
20861;SDS011;10591;52.532;13.348;2023-05-20T12:44:45;10.95;;;9.18;;
20861;SDS011;10591;52.532;13.348;2023-05-20T12:47:16;10.10;;;9.10;;
20861;SDS011;10591;52.532;13.348;2023-05-20T12:49:48;11.35;;;8.93;;
20861;SDS011;10591;52.532;13.348;2023-05-20T12:52:18;12.03;;;8.95;;
20861;SDS011;10591;52.532;13.348;2023-05-20T12:54:52;10.85;;;8.73;;
20861;SDS011;10591;52.532;13.348;2023-05-20T12:57:23;10.35;;;9.23;;
20861;SDS011;10591;52.532;13.348;2023-05-20T12:59:54;9.93;;;8.80;;
20861;SDS011;10591;52.532;13.348;2023-05-20T13:02:25;10.03;;;8.83;;
20861;SDS011;10591;52.532;13.348;2023-05-20T13:04:56;10.03;;;9.03;;
20861;SDS011;10591;52.532;13.348;2023-05-20T13:07:26;10.35;;;9.25;;
20861;SDS011;10591;52.532;13.348;2023-05-20T13:09:57;10.43;;;8.73;;
20861;SDS011;10591;52.532;13.348;2023-05-20T13:12:28;11.00;;;9.43;;
20861;SDS011;10591;52.532;13.348;2023-05-20T13:14:59;10.90;;;9.08;;
20861;SDS011;10591;52.532;13.348;2023-05-20T13:17:32;11.20;;;8.68;;
20861;SDS011;10591;52.532;13.348;2023-05-20T13:20:04;14.23;;;9.30;;
20861;SDS011;10591;52.532;13.348;2023-05-20T13:22:39;9.98;;;8.75;;
20861;SDS011;10591;52.532;13.348;2023-05-20T13:25:11;10.43;;;9.25;;
20861;SDS011;10591;52.532;13.348;2023-05-20T13:27:42;9.50;;;8.60;;
20861;SDS011;10591;52.532;13.348;2023-05-20T13:30:12;10.08;;;9.08;;
20861;SDS011;10591;52.532;13.348;2023-05-20T13:32:43;10.85;;;8.70;;
20861;SDS011;10591;52.532;13.348;2023-05-20T13:35:15;10.40;;;8.80;;
20861;SDS011;10591;52.532;13.348;2023-05-20T13:37:51;9.73;;;8.73;;
20861;SDS011;10591;52.532;13.348;2023-05-20T13:40:22;10.08;;;9.00;;
20861;SDS011;10591;52.532;13.348;2023-05-20T13:42:53;10.03;;;8.40;;
20861;SDS011;10591;52.532;13.348;2023-05-20T13:45:24;10.40;;;8.55;;
20861;SDS011;10591;52.532;13.348;2023-05-20T13:47:56;10.35;;;8.73;;
20861;SDS011;10591;52.532;13.348;2023-05-20T13:50:27;9.45;;;8.53;;
20861;SDS011;10591;52.532;13.348;2023-05-20T13:52:57;9.58;;;8.50;;
20861;SDS011;10591;52.532;13.348;2023-05-20T13:55:28;10.43;;;8.80;;
20861;SDS011;10591;52.532;13.348;2023-05-20T13:57:59;9.88;;;8.88;;
20861;SDS011;10591;52.532;13.348;2023-05-20T14:00:30;9.33;;;8.20;;
20861;SDS011;10591;52.532;13.348;2023-05-20T14:03:02;11.45;;;8.68;;
20861;SDS011;10591;52.532;13.348;2023-05-20T14:05:35;9.35;;;8.30;;
20861;SDS011;10591;52.532;13.348;2023-05-20T14:08:08;10.63;;;8.25;;
20861;SDS011;10591;52.532;13.348;2023-05-20T14:10:38;8.60;;;7.80;;
20861;SDS011;10591;52.532;13.348;2023-05-20T14:13:09;9.68;;;8.78;;
20861;SDS011;10591;52.532;13.348;2023-05-20T14:15:44;8.78;;;7.87;;
20861;SDS011;10591;52.532;13.348;2023-05-20T14:18:20;9.70;;;8.70;;
20861;SDS011;10591;52.532;13.348;2023-05-20T14:20:47;9.60;;;8.50;;
20861;SDS011;10591;52.532;13.348;2023-05-20T14:23:18;9.53;;;8.48;;
20861;SDS011;10591;52.532;13.348;2023-05-20T14:25:49;10.18;;;8.65;;
20861;SDS011;10591;52.532;13.348;2023-05-20T14:28:19;8.70;;;7.90;;
20861;SDS011;10591;52.532;13.348;2023-05-20T14:30:50;9.65;;;8.65;;
20861;SDS011;10591;52.532;13.348;2023-05-20T14:33:22;9.08;;;8.03;;
20861;SDS011;10591;52.532;13.348;2023-05-20T14:35:52;9.38;;;8.48;;
20861;SDS011;10591;52.532;13.348;2023-05-20T14:38:23;9.25;;;8.23;;
20861;SDS011;10591;52.532;13.348;2023-05-20T14:40:55;9.55;;;8.33;;
20861;SDS011;10591;52.532;13.348;2023-05-20T14:43:27;9.70;;;8.30;;
20861;SDS011;10591;52.532;13.348;2023-05-20T14:45:59;8.83;;;7.70;;
20861;SDS011;10591;52.532;13.348;2023-05-20T14:48:30;9.78;;;7.85;;
20861;SDS011;10591;52.532;13.348;2023-05-20T14:51:01;10.08;;;8.23;;
20861;SDS011;10591;52.532;13.348;2023-05-20T14:53:31;10.38;;;7.65;;
20861;SDS011;10591;52.532;13.348;2023-05-20T14:56:04;10.50;;;8.38;;
20861;SDS011;10591;52.532;13.348;2023-05-20T14:58:34;8.93;;;8.13;;
20861;SDS011;10591;52.532;13.348;2023-05-20T15:01:05;8.60;;;7.80;;
20861;SDS011;10591;52.532;13.348;2023-05-20T15:03:36;9.93;;;8.43;;
20861;SDS011;10591;52.532;13.348;2023-05-20T15:06:06;8.73;;;7.92;;